Terminal Aerodrome Forecast
Issued by NWS Jackson, MS

Home | Current Version | Previous Version | Text Only | Print | Product List | Glossary On
Versions: 1 2 3 4 5 6 7 8 9 10 11 12 13 14
000
FTUS44 KJAN 281700 AAA
TAFMEI
TAF AMD
KMEI 281734Z 2818/2918 25004KT P6SM SCT050
     FM290000 33011KT P6SM SCT250
     FM290200 34003KT P6SM SKC
     FM290800 00000KT 4SM BR SKC
     FM291300 36005KT P6SM SKC=

USA.gov is the U.S. government's official web portal to all federal, state and local government web resources and services.